Time;durP1;ratioP1;P1;durP2;ratioP2;P2;SDS_P1;SDS_P2;PMS_P1;PMS_P2;Temp;Humidity;BMP_temperature;BMP_pressure;BME280_temperature;BME280_humidity;BME280_pressure;Samples;Min_cycle;Max_cycle;Signal;HPM_P1;HPM_P2
2022/09/20 00:01:21;;;;;;;1999.90;999.90;;;12.70;99.90;;;;;;5053308;28;20406;-70
2022/09/20 00:03:52;;;;;;;1999.90;999.90;;;12.70;99.90;;;;;;5053019;28;20258;-70
2022/09/20 00:06:21;;;;;;;1999.90;999.90;;;12.80;99.90;;;;;;5052990;28;20521;-71
2022/09/20 00:08:47;;;;;;;1999.90;999.90;;;12.80;99.90;;;;;;5052783;28;20436;-71
2022/09/20 00:11:24;;;;;;;1999.90;999.90;;;12.80;99.90;;;;;;5052940;28;20485;-71
2022/09/20 00:13:53;;;;;;;1999.90;999.90;;;12.70;99.90;;;;;;5053132;28;20402;-71
2022/09/20 00:16:30;;;;;;;1999.90;999.90;;;12.70;99.90;;;;;;5052762;28;20425;-71
2022/09/20 00:18:58;;;;;;;1999.90;999.90;;;12.70;99.90;;;;;;5052578;28;20433;-71
2022/09/20 00:21:26;;;;;;;1999.90;999.90;;;12.70;99.90;;;;;;5052538;28;20418;-70
2022/09/20 00:23:53;;;;;;;1999.90;999.90;;;12.60;99.90;;;;;;5052701;28;20497;-70
2022/09/20 00:26:19;;;;;;;1999.90;999.90;;;12.60;99.90;;;;;;5052482;28;20410;-71
2022/09/20 00:28:45;;;;;;;1999.90;999.90;;;12.70;99.90;;;;;;5052404;28;20453;-71
2022/09/20 00:31:12;;;;;;;1999.90;999.90;;;12.60;99.90;;;;;;5052580;28;20901;-71
2022/09/20 00:36:23;;;;;;;1999.90;999.90;;;12.60;99.90;;;;;;5052741;28;20502;-71
2022/09/20 00:38:53;;;;;;;1999.90;999.90;;;12.60;99.90;;;;;;5052200;28;20453;-71
2022/09/20 00:41:18;;;;;;;1999.90;999.90;;;12.60;99.90;;;;;;5052351;28;20515;-71
2022/09/20 00:43:45;;;;;;;1999.90;999.90;;;12.60;99.90;;;;;;5052264;28;20429;-71
2022/09/20 00:46:38;;;;;;;1999.90;999.90;;;12.60;99.90;;;;;;5052264;28;20189;-71
2022/09/20 00:49:15;;;;;;;1999.90;999.90;;;12.60;99.90;;;;;;5052178;28;20457;-71
2022/09/20 00:51:47;;;;;;;1999.90;999.90;;;12.60;99.90;;;;;;5051934;28;20405;-71
2022/09/20 00:54:17;;;;;;;1999.90;999.90;;;12.50;99.90;;;;;;5052251;28;20524;-70
2022/09/20 00:56:43;;;;;;;1999.90;999.90;;;12.50;99.90;;;;;;5051895;28;20489;-71
2022/09/20 00:59:12;;;;;;;1999.90;999.90;;;12.50;99.90;;;;;;5051987;28;20547;-70
2022/09/20 01:01:37;;;;;;;1999.90;999.90;;;12.50;99.90;;;;;;5051987;28;20660;-71
2022/09/20 01:04:04;;;;;;;1999.90;999.90;;;12.60;99.90;;;;;;5052095;28;20536;-71
2022/09/20 01:06:31;;;;;;;1999.90;999.90;;;12.50;99.90;;;;;;5051859;28;20245;-70
2022/09/20 01:09:01;;;;;;;1999.90;999.90;;;12.50;99.90;;;;;;5051790;28;20508;-70
2022/09/20 01:11:28;;;;;;;1999.90;999.90;;;12.60;99.90;;;;;;5051926;28;20552;-69
2022/09/20 01:13:54;;;;;;;1999.90;999.90;;;12.50;99.90;;;;;;5051958;28;20935;-71
2022/09/20 01:16:21;;;;;;;1999.90;999.90;;;12.60;99.90;;;;;;5051698;28;20495;-71
2022/09/20 01:18:48;;;;;;;1999.90;999.90;;;12.60;99.90;;;;;;5051731;28;20190;-71
2022/09/20 01:21:14;;;;;;;1999.90;999.90;;;12.60;99.90;;;;;;5051821;28;20490;-71
2022/09/20 01:23:40;;;;;;;1999.90;999.90;;;12.70;99.90;;;;;;5051759;28;20812;-71
2022/09/20 01:26:14;;;;;;;1999.90;999.90;;;12.70;99.90;;;;;;5051626;28;20407;-71
2022/09/20 01:28:43;;;;;;;1999.90;999.90;;;12.70;99.90;;;;;;5051511;28;20189;-71
2022/09/20 01:31:12;;;;;;;1999.90;999.90;;;12.70;99.90;;;;;;5051753;28;20408;-71
2022/09/20 01:33:49;;;;;;;1999.90;999.90;;;12.70;99.90;;;;;;5051751;28;20457;-70
2022/09/20 01:36:32;;;;;;;1999.90;999.90;;;12.70;99.90;;;;;;5051527;28;20409;-70
2022/09/20 01:39:04;;;;;;;1999.90;999.90;;;12.70;99.90;;;;;;5051530;28;20835;-70
2022/09/20 01:41:57;;;;;;;1999.90;999.90;;;12.70;99.90;;;;;;5051624;28;20414;-71
2022/09/20 01:44:42;;;;;;;1999.90;999.90;;;12.70;99.90;;;;;;5051594;28;20421;-70
2022/09/20 01:47:17;;;;;;;1999.90;999.90;;;12.70;99.90;;;;;;5051234;28;20399;-70
2022/09/20 01:50:00;;;;;;;1999.90;999.90;;;12.70;99.90;;;;;;5051666;28;20402;-71
2022/09/20 01:52:31;;;;;;;1999.90;999.90;;;12.70;99.90;;;;;;5051576;28;20863;-70
2022/09/20 01:55:20;;;;;;;1999.90;999.90;;;12.70;99.90;;;;;;5051502;28;20406;-71
2022/09/20 01:58:01;;;;;;;1999.90;999.90;;;12.70;99.90;;;;;;5043013;28;20587;-69
2022/09/20 02:00:37;;;;;;;1999.90;999.90;;;12.80;99.90;;;;;;5051361;28;20424;-71
2022/09/20 02:03:33;;;;;;;1999.90;999.90;;;12.70;99.90;;;;;;5051346;28;20960;-71
2022/09/20 02:06:06;;;;;;;1999.90;999.90;;;12.70;99.90;;;;;;5055107;28;20892;-71
2022/09/20 02:08:45;;;;;;;1999.90;999.90;;;12.80;99.90;;;;;;5055056;28;20552;-70
2022/09/20 02:11:36;;;;;;;1999.90;999.90;;;12.90;99.90;;;;;;5055241;28;20405;-70
2022/09/20 02:14:29;;;;;;;1999.90;999.90;;;12.80;99.90;;;;;;5055095;28;20410;-71
2022/09/20 02:17:47;;;;;;;1999.90;999.90;;;12.70;99.90;;;;;;5054850;28;20532;-70
2022/09/20 02:20:42;;;;;;;1999.90;999.90;;;12.80;99.90;;;;;;5021200;28;20418;-69
2022/09/20 02:23:21;;;;;;;1999.90;999.90;;;12.70;99.90;;;;;;5054949;28;20558;-69
2022/09/20 02:26:28;;;;;;;1999.90;999.90;;;12.70;99.90;;;;;;5055021;28;20405;-69
2022/09/20 02:29:09;;;;;;;1999.90;999.90;;;12.50;99.90;;;;;;5054719;28;20414;-68
2022/09/20 02:31:55;;;;;;;1999.90;999.90;;;12.50;99.90;;;;;;5054864;28;20452;-69
2022/09/20 02:34:55;;;;;;;1999.90;999.90;;;12.50;99.90;;;;;;5054830;28;20391;-68
2022/09/20 02:37:53;;;;;;;1999.90;999.90;;;12.60;99.90;;;;;;5054382;28;20438;-69
2022/09/20 02:40:28;;;;;;;1999.90;999.90;;;12.60;99.90;;;;;;5054663;28;20434;-68
2022/09/20 02:43:17;;;;;;;1999.90;999.90;;;12.60;99.90;;;;;;5054613;28;20457;-69
2022/09/20 02:46:07;;;;;;;1999.90;999.90;;;12.50;99.90;;;;;;5046371;28;20453;-69
2022/09/20 02:49:14;;;;;;;1999.90;999.90;;;12.50;99.90;;;;;;5054310;28;20923;-68
2022/09/20 02:51:47;;;;;;;1999.90;999.90;;;12.50;99.90;;;;;;5054295;28;21026;-69
2022/09/20 02:54:41;;;;;;;1999.90;999.90;;;12.50;99.90;;;;;;5054500;28;20397;-69
2022/09/20 02:57:39;;;;;;;1999.90;999.90;;;12.50;99.90;;;;;;5054134;28;20744;-69
2022/09/20 03:00:17;;;;;;;1999.90;999.90;;;12.40;99.90;;;;;;5054397;28;21173;-69
2022/09/20 03:03:05;;;;;;;1999.90;999.90;;;12.40;99.90;;;;;;5054349;28;20490;-69
2022/09/20 03:05:48;;;;;;;1999.90;999.90;;;12.30;99.90;;;;;;5054188;28;20410;-67
2022/09/20 03:08:14;;;;;;;1999.90;999.90;;;12.40;99.90;;;;;;5053942;28;20406;-67
2022/09/20 03:10:55;;;;;;;1999.90;999.90;;;12.40;99.90;;;;;;5054115;28;21292;-69
2022/09/20 03:14:02;;;;;;;1999.90;999.90;;;12.40;99.90;;;;;;5053995;28;20174;-67
2022/09/20 03:16:28;;;;;;;1999.90;999.90;;;12.50;99.90;;;;;;5053544;28;20477;-67
2022/09/20 03:18:56;;;;;;;1999.90;999.90;;;12.50;99.90;;;;;;5053742;28;20510;-67
2022/09/20 03:21:32;;;;;;;1999.90;999.90;;;12.50;99.90;;;;;;5053841;28;20582;-68
2022/09/20 03:24:34;;;;;;;1999.90;999.90;;;12.40;99.90;;;;;;5053928;28;20799;-69
2022/09/20 03:27:11;;;;;;;1999.90;999.90;;;12.30;99.90;;;;;;5053491;28;20417;-67
2022/09/20 03:30:01;;;;;;;1999.90;999.90;;;12.30;99.90;;;;;;5052654;28;20934;-67
2022/09/20 03:32:51;;;;;;;1999.90;999.90;;;12.30;99.90;;;;;;5053787;28;20409;-68
2022/09/20 03:35:44;;;;;;;1999.90;999.90;;;12.30;99.90;;;;;;5053721;28;20417;-67
2022/09/20 03:38:23;;;;;;;1999.90;999.90;;;12.40;99.90;;;;;;5053344;28;20886;-67
2022/09/20 03:40:57;;;;;;;1999.90;999.90;;;12.50;99.90;;;;;;5054411;28;20421;-68
2022/09/20 03:43:29;;;;;;;1999.90;999.90;;;12.40;99.90;;;;;;5053630;28;20475;-68
2022/09/20 03:46:20;;;;;;;1999.90;999.90;;;12.40;99.90;;;;;;5054051;28;21209;-68
2022/09/20 03:49:00;;;;;;;1999.90;999.90;;;12.40;99.90;;;;;;5053618;28;20895;-68
2022/09/20 03:51:25;;;;;;;1999.90;999.90;;;12.40;99.90;;;;;;5054245;28;20758;-67
2022/09/20 03:53:57;;;;;;;1999.90;999.90;;;12.30;99.90;;;;;;5053227;28;20410;-68
2022/09/20 03:56:37;;;;;;;1999.90;999.90;;;12.30;99.90;;;;;;5053149;28;20316;-67
2022/09/20 03:59:12;;;;;;;1999.90;999.90;;;12.30;99.90;;;;;;5053161;28;20451;-69
2022/09/20 04:01:38;;;;;;;1999.90;999.90;;;12.30;99.90;;;;;;5053046;28;20403;-68
2022/09/20 04:04:27;;;;;;;1999.90;999.90;;;12.40;99.90;;;;;;5053170;28;20406;-69
2022/09/20 04:06:52;;;;;;;1999.90;999.90;;;12.30;99.90;;;;;;5052849;28;20171;-68
2022/09/20 04:09:46;;;;;;;1999.90;999.90;;;12.20;99.90;;;;;;5052950;28;20475;-68
2022/09/20 04:13:04;;;;;;;1999.90;999.90;;;12.20;99.90;;;;;;5052961;28;20176;-67
2022/09/20 04:15:43;;;;;;;1999.90;999.90;;;12.10;99.90;;;;;;5019125;28;20414;-67
2022/09/20 04:18:19;;;;;;;1999.90;999.90;;;12.20;99.90;;;;;;5052740;28;20793;-68
2022/09/20 04:21:13;;;;;;;1999.90;999.90;;;12.20;99.90;;;;;;5052856;28;20410;-67
2022/09/20 04:23:48;;;;;;;1999.90;999.90;;;12.10;99.90;;;;;;5046858;28;20890;-67
2022/09/20 04:26:22;;;;;;;1999.90;999.90;;;12.10;99.90;;;;;;5052461;28;20405;-68
2022/09/20 04:28:54;;;;;;;1999.90;999.90;;;12.10;99.90;;;;;;5052144;28;20438;-67
2022/09/20 04:31:39;;;;;;;1999.90;999.90;;;12.10;99.90;;;;;;5052645;28;20412;-67
2022/09/20 04:34:21;;;;;;;1999.90;999.90;;;12.10;99.90;;;;;;5052699;28;20504;-68
2022/09/20 04:37:03;;;;;;;1999.90;999.90;;;12.10;99.90;;;;;;5052261;28;20402;-67
2022/09/20 04:39:36;;;;;;;1999.90;999.90;;;12.00;99.90;;;;;;5052595;28;20970;-67
2022/09/20 04:42:20;;;;;;;1999.90;999.90;;;12.00;99.90;;;;;;5052778;28;20446;-67
2022/09/20 04:44:52;;;;;;;1999.90;999.90;;;12.00;99.90;;;;;;5052435;28;20407;-67
2022/09/20 04:47:41;;;;;;;1999.90;999.90;;;11.90;99.90;;;;;;5052073;28;20482;-68
2022/09/20 04:50:10;;;;;;;1999.90;999.90;;;12.00;99.90;;;;;;5052300;28;20409;-67
2022/09/20 04:53:13;;;;;;;1999.90;999.90;;;12.00;99.90;;;;;;5052221;28;20750;-67
2022/09/20 04:56:00;;;;;;;1999.90;999.90;;;12.00;99.90;;;;;;5052179;28;20417;-67
2022/09/20 04:58:46;;;;;;;1999.90;999.90;;;11.90;99.90;;;;;;5051761;28;20453;-67
2022/09/20 05:01:18;;;;;;;1999.90;999.90;;;12.00;99.90;;;;;;5052131;28;20402;-67
2022/09/20 05:03:59;;;;;;;1999.90;999.90;;;11.90;99.90;;;;;;5051980;28;20460;-68
2022/09/20 05:06:24;;;;;;;1999.90;999.90;;;11.90;99.90;;;;;;5051927;28;20467;-67
2022/09/20 05:09:02;;;;;;;1999.90;999.90;;;11.80;99.90;;;;;;5051651;28;20947;-67
2022/09/20 05:11:51;;;;;;;1999.90;999.90;;;11.80;99.90;;;;;;5051792;28;20174;-67
2022/09/20 05:14:36;;;;;;;1999.90;999.90;;;11.70;99.90;;;;;;5051975;28;20398;-67
2022/09/20 05:17:24;;;;;;;1999.90;999.90;;;11.70;99.90;;;;;;5051720;28;20402;-67
2022/09/20 05:20:23;;;;;;;1999.90;999.90;;;11.70;99.90;;;;;;5051907;28;20397;-67
2022/09/20 05:23:24;;;;;;;1999.90;999.90;;;11.80;99.90;;;;;;5051786;28;20470;-67
2022/09/20 05:26:10;;;;;;;1999.90;999.90;;;11.80;99.90;;;;;;5051628;28;20413;-69
2022/09/20 05:28:52;;;;;;;1999.90;999.90;;;11.80;99.90;;;;;;5051502;28;20429;-67
2022/09/20 05:31:47;;;;;;;1999.90;999.90;;;11.80;99.90;;;;;;5051761;28;20398;-68
2022/09/20 05:34:13;;;;;;;1999.90;999.90;;;11.80;99.90;;;;;;5051644;28;20402;-67
2022/09/20 05:36:41;;;;;;;1999.90;999.90;;;11.80;99.90;;;;;;5051325;28;20991;-68
2022/09/20 05:39:37;;;;;;;1999.90;999.90;;;11.80;99.90;;;;;;5054075;28;20564;-67
2022/09/20 05:42:46;;;;;;;1999.90;999.90;;;11.90;99.90;;;;;;5055719;28;20437;-66
2022/09/20 05:45:49;;;;;;;1999.90;999.90;;;11.90;99.90;;;;;;4994071;28;20431;-68
2022/09/20 05:48:31;;;;;;;1999.90;999.90;;;11.90;99.90;;;;;;5055437;28;20424;-67
2022/09/20 05:51:15;;;;;;;1999.90;999.90;;;11.90;99.90;;;;;;5055633;28;20489;-67
2022/09/20 05:54:04;;;;;;;1999.90;999.90;;;11.80;99.90;;;;;;5055569;28;20398;-67
2022/09/20 05:57:12;;;;;;;1999.90;999.90;;;11.80;99.90;;;;;;5055523;28;20387;-67
2022/09/20 06:00:03;;;;;;;1999.90;999.90;;;11.80;99.90;;;;;;5055365;28;20425;-67
2022/09/20 06:02:47;;;;;;;1999.90;999.90;;;11.90;99.90;;;;;;5055392;28;20445;-68
2022/09/20 06:05:20;;;;;;;1999.90;999.90;;;11.90;99.90;;;;;;5055344;28;20401;-68
2022/09/20 06:08:04;;;;;;;1999.90;999.90;;;11.80;99.90;;;;;;5054952;28;20426;-67
2022/09/20 06:10:52;;;;;;;1999.90;999.90;;;11.80;99.90;;;;;;5055328;28;20797;-67
2022/09/20 06:13:32;;;;;;;1999.90;999.90;;;11.80;99.90;;;;;;5055234;28;20406;-67
2022/09/20 06:16:03;;;;;;;1999.90;999.90;;;11.80;99.90;;;;;;5055118;28;20413;-67
2022/09/20 06:18:51;;;;;;;1999.90;999.90;;;11.80;99.90;;;;;;5054917;28;20429;-68
2022/09/20 06:21:49;;;;;;;1999.90;999.90;;;11.90;99.90;;;;;;5054878;28;20797;-69
2022/09/20 06:24:36;;;;;;;1999.90;999.90;;;11.80;99.90;;;;;;5055048;28;20399;-67
2022/09/20 06:27:08;;;;;;;1999.90;999.90;;;11.80;99.90;;;;;;5054904;28;20390;-67
2022/09/20 06:29:40;;;;;;;1999.90;999.90;;;11.80;99.90;;;;;;5054860;28;20545;-67
2022/09/20 06:32:07;;;;;;;1999.90;999.90;;;11.90;99.90;;;;;;5055324;28;20393;-67
2022/09/20 06:34:33;;;;;;;1999.90;999.90;;;12.00;99.90;;;;;;5054782;28;20402;-67
2022/09/20 06:41:25;;;;;;;1999.90;999.90;;;12.30;99.90;;;;;;5054975;28;20397;-67
2022/09/20 06:43:18;;;;;;;1999.90;999.90;;;12.50;99.90;;;;;;5052314;28;20457;-67
2022/09/20 06:45:44;;;;;;;1999.90;999.90;;;12.60;99.90;;;;;;5054602;28;20398;-68
2022/09/20 06:48:12;;;;;;;1999.90;999.90;;;12.80;99.90;;;;;;5054301;28;20433;-68
2022/09/20 06:50:38;;;;;;;1999.90;999.90;;;12.90;99.90;;;;;;5053763;28;20413;-68
2022/09/20 06:53:05;;;;;;;1999.90;999.90;;;13.00;99.90;;;;;;5054387;28;20399;-68
2022/09/20 06:55:42;;;;;;;1999.90;999.90;;;13.20;99.90;;;;;;5054369;28;20422;-68
2022/09/20 06:58:08;;;;;;;1999.90;999.90;;;13.10;99.90;;;;;;5054108;28;20422;-67
2022/09/20 07:00:34;;;;;;;1999.90;999.90;;;13.10;99.90;;;;;;5054297;28;20406;-68
2022/09/20 07:03:00;;;;;;;1999.90;999.90;;;13.10;99.90;;;;;;5054113;28;20557;-67
2022/09/20 07:05:25;;;;;;;1999.90;999.90;;;13.00;99.90;;;;;;5054249;28;20994;-67
2022/09/20 07:07:58;;;;;;;1999.90;999.90;;;13.10;99.90;;;;;;5053786;28;20183;-68
2022/09/20 07:10:27;;;;;;;1999.90;999.90;;;13.10;99.90;;;;;;5054198;28;20172;-68
2022/09/20 07:13:01;;;;;;;1999.90;999.90;;;13.10;99.90;;;;;;5054208;28;20777;-67
2022/09/20 07:15:27;;;;;;;1999.90;999.90;;;13.20;99.90;;;;;;5054006;28;20811;-68
2022/09/20 07:17:54;;;;;;;1999.90;999.90;;;13.30;99.90;;;;;;5053722;28;20430;-67
2022/09/20 07:20:20;;;;;;;1999.90;999.90;;;13.50;99.90;;;;;;5053969;28;20412;-67
2022/09/20 07:22:47;;;;;;;1999.90;999.90;;;13.50;99.90;;;;;;5053780;28;20457;-67
2022/09/20 07:25:13;;;;;;;1999.90;999.90;;;13.50;99.90;;;;;;5053944;28;20812;-68
2022/09/20 07:27:38;;;;;;;1999.90;999.90;;;13.50;99.90;;;;;;5053580;28;20437;-68
2022/09/20 07:30:06;;;;;;;1999.90;999.90;;;13.50;99.90;;;;;;5053780;28;21027;-68
2022/09/20 07:32:31;;;;;;;1999.90;999.90;;;13.60;99.90;;;;;;5053642;28;20523;-68
2022/09/20 07:34:58;;;;;;;1999.90;999.90;;;13.70;99.90;;;;;;5053619;28;20413;-67
2022/09/20 07:37:23;;;;;;;1999.90;999.90;;;13.80;99.90;;;;;;5053231;28;20173;-68
2022/09/20 07:39:49;;;;;;;1999.90;999.90;;;13.90;99.90;;;;;;5053570;28;20413;-68
2022/09/20 07:42:15;;;;;;;1999.90;999.90;;;14.10;99.90;;;;;;5053404;28;20214;-67
2022/09/20 07:44:42;;;;;;;1999.90;999.90;;;14.20;99.90;;;;;;5053477;28;20184;-67
2022/09/20 07:47:10;;;;;;;1999.90;999.90;;;14.20;99.90;;;;;;5053200;28;20500;-68
2022/09/20 07:49:35;;;;;;;1999.90;999.90;;;14.20;99.90;;;;;;5053213;28;20424;-68
2022/09/20 07:52:02;;;;;;;1999.90;999.90;;;14.20;99.90;;;;;;5053311;28;20547;-68
2022/09/20 07:54:27;;;;;;;1999.90;999.90;;;14.10;99.90;;;;;;5053313;28;20502;-68
2022/09/20 07:56:53;;;;;;;1999.90;999.90;;;14.20;99.90;;;;;;5053054;28;20882;-67
2022/09/20 07:59:19;;;;;;;1999.90;999.90;;;14.30;99.90;;;;;;5053162;28;20216;-67
2022/09/20 08:01:45;;;;;;;1999.90;999.90;;;14.40;99.90;;;;;;5052068;28;20765;-67
2022/09/20 08:04:11;;;;;;;1999.90;999.90;;;14.50;99.90;;;;;;5053105;28;20402;-67
2022/09/20 08:06:38;;;;;;;1999.90;999.90;;;14.60;99.90;;;;;;5052899;28;20841;-67
2022/09/20 08:09:05;;;;;;;1999.90;999.90;;;14.60;99.90;;;;;;5052990;28;20419;-67
2022/09/20 08:11:31;;;;;;;1999.90;999.90;;;14.50;99.90;;;;;;5053001;28;20403;-67
2022/09/20 08:13:58;;;;;;;1999.90;999.90;;;14.20;99.90;;;;;;5052956;28;20406;-67
2022/09/20 08:16:26;;;;;;;1999.90;999.90;;;14.00;99.90;;;;;;5052989;28;20225;-67
2022/09/20 08:18:57;;;;;;;1999.90;999.90;;;14.00;99.90;;;;;;5052593;28;21122;-67
2022/09/20 08:21:24;;;;;;;1999.90;999.90;;;14.00;99.90;;;;;;5052833;28;20494;-67
2022/09/20 08:23:50;;;;;;;1999.90;999.90;;;14.00;99.90;;;;;;5052698;28;20995;-68
2022/09/20 08:26:19;;;;;;;1999.90;999.90;;;14.10;99.90;;;;;;5052660;28;20399;-67
2022/09/20 08:28:46;;;;;;;1999.90;999.90;;;14.20;99.90;;;;;;5052412;28;20459;-67
2022/09/20 08:31:18;;;;;;;1999.90;999.90;;;14.20;99.90;;;;;;5052579;28;20481;-67
2022/09/20 08:33:44;;;;;;;1999.90;999.90;;;14.30;99.90;;;;;;5052642;28;20410;-67
2022/09/20 08:36:16;;;;;;;1999.90;999.90;;;14.40;99.90;;;;;;5052300;28;20474;-67
2022/09/20 08:38:42;;;;;;;1999.90;999.90;;;14.50;99.90;;;;;;5051854;28;20426;-68
2022/09/20 08:41:17;;;;;;;1999.90;999.90;;;14.60;99.90;;;;;;5052426;28;20411;-68
2022/09/20 08:43:54;;;;;;;1999.90;999.90;;;14.60;99.90;;;;;;5050967;28;20494;-67
2022/09/20 08:46:28;;;;;;;1999.90;999.90;;;14.80;99.90;;;;;;5052302;28;20519;-68
2022/09/20 08:48:55;;;;;;;1999.90;999.90;;;14.70;99.90;;;;;;5052082;28;20443;-68
2022/09/20 08:51:29;;;;;;;1999.90;999.90;;;14.80;99.90;;;;;;5052312;28;20406;-68
2022/09/20 08:53:56;;;;;;;1999.90;999.90;;;14.70;99.90;;;;;;5052194;28;20402;-69
2022/09/20 08:56:26;;;;;;;1999.90;999.90;;;14.70;99.90;;;;;;5052178;28;20420;-68
2022/09/20 08:58:53;;;;;;;1999.90;999.90;;;14.50;99.90;;;;;;5051990;28;20424;-68
2022/09/20 09:01:23;;;;;;;1999.90;999.90;;;14.50;99.90;;;;;;5051995;28;20406;-68
2022/09/20 09:04:17;;;;;;;1999.90;999.90;;;14.60;99.90;;;;;;5051996;28;20459;-69
2022/09/20 09:06:44;;;;;;;1999.90;999.90;;;14.60;99.90;;;;;;5051261;28;20416;-69
2022/09/20 09:09:18;;;;;;;1999.90;999.90;;;14.60;99.90;;;;;;5051969;28;20561;-69
2022/09/20 09:11:45;;;;;;;1999.90;999.90;;;14.70;99.90;;;;;;5052263;28;20412;-70
2022/09/20 09:17:12;;;;;;;1999.90;999.90;;;14.80;99.90;;;;;;5051617;28;20398;-70
2022/09/20 09:19:55;;;;;;;1999.90;999.90;;;14.80;99.90;;;;;;5051895;28;20454;-70
2022/09/20 09:22:41;;;;;;;1999.90;999.90;;;14.90;99.90;;;;;;5051746;28;20440;-70
2022/09/20 09:25:18;;;;;;;1999.90;999.90;;;14.90;99.90;;;;;;5051718;28;20428;-70
2022/09/20 09:27:53;;;;;;;1999.90;999.90;;;14.90;99.90;;;;;;5051437;28;20422;-70
2022/09/20 09:30:46;;;;;;;1999.90;999.90;;;15.00;99.90;;;;;;5051646;28;20434;-69
2022/09/20 09:33:29;;;;;;;1999.90;999.90;;;15.10;99.90;;;;;;5051990;28;20437;-72
2022/09/20 09:36:05;;;;;;;1999.90;999.90;;;15.20;99.90;;;;;;5051614;28;20422;-69
2022/09/20 09:38:36;;;;;;;1999.90;999.90;;;15.30;99.90;;;;;;5051548;28;20568;-69
2022/09/20 09:41:07;;;;;;;1999.90;999.90;;;15.40;99.90;;;;;;5052150;28;20418;-70
2022/09/20 09:43:39;;;;;;;1999.90;999.90;;;15.40;99.90;;;;;;5051501;28;20472;-70
2022/09/20 09:46:23;;;;;;;1999.90;999.90;;;15.50;99.90;;;;;;5051479;28;20408;-71
2022/09/20 09:49:15;;;;;;;1999.90;999.90;;;15.30;99.90;;;;;;5051471;28;20518;-70
2022/09/20 09:52:01;;;;;;;1999.90;999.90;;;15.30;99.90;;;;;;5051958;28;20438;-71
2022/09/20 09:54:32;;;;;;;1999.90;999.90;;;15.60;99.90;;;;;;5051543;28;20418;-71
2022/09/20 09:57:04;;;;;;;1999.90;999.90;;;15.70;99.90;;;;;;5051301;28;20572;-71
2022/09/20 09:59:39;;;;;;;1999.90;999.90;;;15.70;99.90;;;;;;5051474;28;20419;-70
2022/09/20 10:02:29;;;;;;;1999.90;999.90;;;15.90;99.90;;;;;;5051413;28;20481;-71
2022/09/20 10:05:10;;;;;;;1999.90;999.90;;;15.90;99.90;;;;;;5051313;28;20900;-69
2022/09/20 10:07:53;;;;;;;1999.90;999.90;;;15.90;99.90;;;;;;5051031;28;20912;-71
2022/09/20 10:10:42;;;;;;;1999.90;999.90;;;16.00;99.90;;;;;;5052965;28;20490;-73
2022/09/20 10:13:22;;;;;;;1999.90;999.90;;;16.00;99.90;;;;;;5050003;28;20399;-72
2022/09/20 10:16:09;;;;;;;1999.90;999.90;;;16.10;99.90;;;;;;5050939;28;20916;-72
2022/09/20 10:18:58;;;;;;;1999.90;999.90;;;16.10;99.90;;;;;;5050650;28;20424;-72
2022/09/20 10:21:44;;;;;;;1999.90;999.90;;;16.00;99.90;;;;;;5050746;28;20846;-71
2022/09/20 10:24:44;;;;;;;1999.90;999.90;;;16.00;99.90;;;;;;5050869;28;20418;-72
2022/09/20 10:27:15;;;;;;;1999.90;999.90;;;15.90;99.90;;;;;;5053296;28;20905;-71
2022/09/20 10:29:59;;;;;;;1999.90;999.90;;;15.90;99.90;;;;;;5053205;28;20797;-70
2022/09/20 10:33:08;;;;;;;1999.90;999.90;;;15.70;99.90;;;;;;5054553;28;20502;-69
2022/09/20 10:35:46;;;;;;;1999.90;999.90;;;15.70;99.90;;;;;;5054334;28;20459;-69
2022/09/20 10:38:15;;;;;;;1999.90;999.90;;;15.70;99.90;;;;;;5053213;28;20759;-68
2022/09/20 10:44:01;;;;;;;1999.90;999.90;;;15.70;99.90;;;;;;5054081;28;20539;-70
2022/09/20 10:46:44;;;;;;;1999.90;999.90;;;15.90;99.90;;;;;;5054004;28;20886;-69
2022/09/20 10:49:33;;;;;;;1999.90;999.90;;;15.90;99.90;;;;;;5054149;28;20937;-69
2022/09/20 10:52:13;;;;;;;1999.90;999.90;;;15.90;99.90;;;;;;5022376;28;20425;-70
2022/09/20 10:55:14;;;;;;;1999.90;999.90;;;15.80;99.90;;;;;;5053132;28;20520;-70
2022/09/20 10:57:50;;;;;;;1999.90;999.90;;;15.80;99.90;;;;;;5053285;28;20457;-70
2022/09/20 11:00:41;;;;;;;1999.90;999.90;;;15.70;99.90;;;;;;5053692;28;20412;-70
2022/09/20 11:04:07;;;;;;;1999.90;999.90;;;15.70;99.90;;;;;;5053606;28;20443;-70
2022/09/20 11:06:33;;;;;;;1999.90;999.90;;;15.80;99.90;;;;;;4991203;28;20421;-71
2022/09/20 11:09:01;;;;;;;1999.90;999.90;;;15.90;99.90;;;;;;4991854;28;20432;-70
2022/09/20 11:11:38;;;;;;;1999.90;999.90;;;15.80;99.90;;;;;;5021447;28;20291;-70
2022/09/20 11:14:11;;;;;;;1999.90;999.90;;;15.70;99.90;;;;;;5053224;28;20958;-70
2022/09/20 11:17:03;;;;;;;1999.90;999.90;;;15.60;99.90;;;;;;5053034;28;20495;-70
2022/09/20 11:19:33;;;;;;;1999.90;999.90;;;15.50;99.90;;;;;;5053510;28;20511;-70
2022/09/20 11:22:10;;;;;;;1999.90;999.90;;;15.50;99.90;;;;;;5052838;28;20426;-71
2022/09/20 11:24:49;;;;;;;1999.90;999.90;;;15.40;99.90;;;;;;5053743;28;20548;-70
2022/09/20 11:27:30;;;;;;;1999.90;999.90;;;15.30;99.90;;;;;;5052705;28;20405;-70
2022/09/20 11:30:07;;;;;;;1999.90;999.90;;;15.20;99.90;;;;;;5053008;28;20405;-70
2022/09/20 11:32:41;;;;;;;1999.90;999.90;;;14.90;99.90;;;;;;5053253;28;20506;-70
2022/09/20 11:35:19;;;;;;;1999.90;999.90;;;14.60;99.90;;;;;;5053335;28;20409;-70
2022/09/20 11:37:59;;;;;;;1999.90;999.90;;;14.70;99.90;;;;;;5051793;28;20419;-71
2022/09/20 11:40:36;;;;;;;1999.90;999.90;;;14.70;99.90;;;;;;5053191;28;20408;-71
2022/09/20 11:43:06;;;;;;;1999.90;999.90;;;14.50;99.90;;;;;;5052571;28;20572;-70
2022/09/20 11:45:34;;;;;;;1999.90;999.90;;;14.40;99.90;;;;;;5053235;28;20406;-70
2022/09/20 11:48:45;;;;;;;1999.90;999.90;;;14.40;99.90;;;;;;5052348;28;20431;-71
2022/09/20 11:51:35;;;;;;;1999.90;999.90;;;14.50;99.90;;;;;;4990819;28;20418;-70
2022/09/20 11:54:19;;;;;;;1999.90;999.90;;;14.60;99.90;;;;;;4991401;28;20449;-70
2022/09/20 11:56:55;;;;;;;1999.90;999.90;;;14.60;99.90;;;;;;5036708;28;20453;-70
2022/09/20 11:59:38;;;;;;;1999.90;999.90;;;14.70;99.90;;;;;;5052156;28;20434;-70
2022/09/20 12:02:24;;;;;;;1999.90;999.90;;;14.70;99.90;;;;;;5052720;28;20829;-70
2022/09/20 12:04:52;;;;;;;1999.90;999.90;;;14.40;99.90;;;;;;5052763;28;20403;-70
2022/09/20 12:07:25;;;;;;;1999.90;999.90;;;14.20;99.90;;;;;;5052011;28;20497;-70
2022/09/20 12:10:07;;;;;;;1999.90;999.90;;;14.00;99.90;;;;;;5052504;28;20393;-70
2022/09/20 12:12:45;;;;;;;1999.90;999.90;;;13.80;99.90;;;;;;5052127;28;20438;-70
2022/09/20 12:15:24;;;;;;;1999.90;999.90;;;13.70;99.90;;;;;;5052625;28;20409;-70
2022/09/20 12:17:51;;;;;;;1999.90;999.90;;;13.70;99.90;;;;;;5051712;28;20772;-71
2022/09/20 12:20:33;;;;;;;1999.90;999.90;;;13.60;99.90;;;;;;5051747;28;20414;-70
2022/09/20 12:23:37;;;;;;;1999.90;999.90;;;13.70;99.90;;;;;;5052387;28;20827;-69
2022/09/20 12:26:02;;;;;;;1999.90;999.90;;;13.80;99.90;;;;;;5052084;28;20748;-70
2022/09/20 12:28:36;;;;;;;1999.90;999.90;;;13.90;99.90;;;;;;5051181;28;20427;-70
2022/09/20 12:31:20;;;;;;;1999.90;999.90;;;13.90;99.90;;;;;;5052165;28;20252;-70
2022/09/20 12:33:55;;;;;;;1999.90;999.90;;;14.00;99.90;;;;;;5052211;28;20467;-70
2022/09/20 12:36:21;;;;;;;1999.90;999.90;;;14.20;99.90;;;;;;5051489;28;20409;-70
2022/09/20 12:38:56;;;;;;;1999.90;999.90;;;14.30;99.90;;;;;;5051507;28;20521;-70
2022/09/20 12:41:22;;;;;;;1999.90;999.90;;;14.30;99.90;;;;;;5043921;28;20429;-70
2022/09/20 12:44:00;;;;;;;1999.90;999.90;;;14.40;99.90;;;;;;5031588;28;20463;-71
2022/09/20 12:46:37;;;;;;;1999.90;999.90;;;14.40;99.90;;;;;;5031751;28;20178;-70
2022/09/20 12:52:49;;;;;;;1999.90;999.90;;;14.60;99.90;;;;;;5051975;28;20497;-70
2022/09/20 12:55:45;;;;;;;1999.90;999.90;;;14.60;99.90;;;;;;5046061;28;20901;-70
2022/09/20 12:58:13;;;;;;;1999.90;999.90;;;14.20;99.90;;;;;;5037932;28;20541;-70
2022/09/20 13:00:51;;;;;;;1999.90;999.90;;;14.00;99.90;;;;;;5031752;28;20417;-69
2022/09/20 13:03:30;;;;;;;1999.90;999.90;;;13.80;99.90;;;;;;5031891;28;20975;-70
2022/09/20 13:08:39;;;;;;;1999.90;999.90;;;13.60;99.90;;;;;;5031177;28;20885;-70